Time,TemperatureF,DewpointF,PressureIn,WindDirection,WindDirectionDegrees,WindSpeedMPH,WindSpeedGustMPH,Humidity,HourlyPrecipIn,Conditions,Clouds,dailyrainin,SoftwareType,DateUTC
2013-09-18 00:00:00,49.0,44.7,30.29,WNW,287,0.0,0.0,85,0.00,,,0.00,Wunderground v.1.15,2013-09-18 04:00:00,
2013-09-18 00:05:00,48.9,44.6,30.29,WNW,287,0.0,0.0,85,0.00,,,0.00,Wunderground v.1.15,2013-09-18 04:05:00,
2013-09-18 00:10:00,48.8,44.5,30.29,WNW,287,0.0,0.0,85,0.00,,,0.00,Wunderground v.1.15,2013-09-18 04:10:00,
2013-09-18 00:15:00,48.6,44.3,30.30,WNW,287,0.0,0.0,85,0.00,,,0.00,Wunderground v.1.15,2013-09-18 04:15:00,
2013-09-18 00:20:00,48.5,44.5,30.29,WNW,287,0.0,0.0,86,0.00,,,0.00,Wunderground v.1.15,2013-09-18 04:20:00,
2013-09-18 00:30:00,48.3,44.3,30.29,WNW,287,0.0,0.0,86,0.00,,,0.00,Wunderground v.1.15,2013-09-18 04:30:00,
2013-09-18 00:40:00,48.3,44.6,30.29,WNW,287,0.0,0.0,87,0.00,,,0.00,Wunderground v.1.15,2013-09-18 04:40:00,
2013-09-18 00:50:00,48.1,44.4,30.29,WNW,287,0.0,0.0,87,0.00,,,0.00,Wunderground v.1.15,2013-09-18 04:50:00,
2013-09-18 01:00:00,47.9,44.2,30.29,WNW,287,0.0,0.0,87,0.00,,,0.00,Wunderground v.1.15,2013-09-18 05:00:00,
2013-09-18 01:05:00,47.9,44.5,30.29,WNW,287,0.0,0.0,88,0.00,,,0.00,Wunderground v.1.15,2013-09-18 05:05:00,
2013-09-18 01:15:00,47.9,44.5,30.29,WNW,287,0.0,0.0,88,0.00,,,0.00,Wunderground v.1.15,2013-09-18 05:15:00,
2013-09-18 01:20:00,47.9,44.5,30.29,WNW,287,0.0,0.0,88,0.00,,,0.00,Wunderground v.1.15,2013-09-18 05:20:00,
2013-09-18 01:25:00,47.8,44.1,30.29,WNW,287,0.0,0.0,87,0.00,,,0.00,Wunderground v.1.15,2013-09-18 05:25:00,
2013-09-18 01:35:00,47.7,44.0,30.29,WNW,287,0.0,0.0,87,0.00,,,0.00,Wunderground v.1.15,2013-09-18 05:35:00,
2013-09-18 01:40:00,47.7,44.0,30.29,WNW,287,0.0,1.0,87,0.00,,,0.00,Wunderground v.1.15,2013-09-18 05:40:00,
2013-09-18 01:50:00,47.7,44.0,30.29,WNW,287,0.0,0.0,87,0.00,,,0.00,Wunderground v.1.15,2013-09-18 05:50:00,
2013-09-18 01:55:00,47.7,44.0,30.28,WNW,287,0.0,0.0,87,0.00,,,0.00,Wunderground v.1.15,2013-09-18 05:55:00,
2013-09-18 02:05:00,47.7,44.0,30.28,WNW,287,0.0,0.0,87,0.00,,,0.00,Wunderground v.1.15,2013-09-18 06:05:00,
2013-09-18 02:15:00,47.6,43.9,30.28,WNW,287,0.0,0.0,87,0.00,,,0.00,Wunderground v.1.15,2013-09-18 06:15:00,
2013-09-18 02:20:00,47.5,43.8,30.28,WNW,287,0.0,0.0,87,0.00,,,0.00,Wunderground v.1.15,2013-09-18 06:20:00,
2013-09-18 02:30:00,47.4,43.7,30.28,WNW,287,0.0,0.0,87,0.00,,,0.00,Wunderground v.1.15,2013-09-18 06:30:00,
2013-09-18 02:35:00,47.4,43.7,30.28,WNW,287,0.0,0.0,87,0.00,,,0.00,Wunderground v.1.15,2013-09-18 06:35:00,
2013-09-18 02:40:00,47.3,43.6,30.28,WNW,287,0.0,0.0,87,0.00,,,0.00,Wunderground v.1.15,2013-09-18 06:40:00,
2013-09-18 02:50:00,47.2,43.5,30.28,WNW,287,0.0,0.0,87,0.00,,,0.00,Wunderground v.1.15,2013-09-18 06:50:00,
2013-09-18 03:00:00,47.1,43.4,30.28,WNW,287,0.0,0.0,87,0.00,,,0.00,Wunderground v.1.15,2013-09-18 07:00:00,
2013-09-18 03:05:00,47.0,43.3,30.28,WNW,287,0.0,0.0,87,0.00,,,0.00,Wunderground v.1.15,2013-09-18 07:05:00,
2013-09-18 03:15:00,46.9,43.5,30.28,WNW,287,0.0,0.0,88,0.00,,,0.00,Wunderground v.1.15,2013-09-18 07:15:00,
2013-09-18 03:25:00,46.7,43.3,30.28,WNW,287,0.0,0.0,88,0.00,,,0.00,Wunderground v.1.15,2013-09-18 07:25:00,
2013-09-18 03:30:00,46.6,43.2,30.28,WNW,287,0.0,0.0,88,0.00,,,0.00,Wunderground v.1.15,2013-09-18 07:30:00,
2013-09-18 03:35:00,46.5,43.1,30.27,WNW,287,0.0,0.0,88,0.00,,,0.00,Wunderground v.1.15,2013-09-18 07:35:00,
2013-09-18 03:45:00,46.4,43.0,30.27,WNW,287,0.0,0.0,88,0.00,,,0.00,Wunderground v.1.15,2013-09-18 07:45:00,
2013-09-18 03:50:00,46.3,43.2,30.27,WNW,287,0.0,0.0,89,0.00,,,0.00,Wunderground v.1.15,2013-09-18 07:50:00,
2013-09-18 04:00:00,46.2,42.8,30.27,WNW,287,0.0,0.0,88,0.00,,,0.00,Wunderground v.1.15,2013-09-18 08:00:00,
2013-09-18 04:05:00,46.1,43.0,30.27,WNW,287,0.0,0.0,89,0.00,,,0.00,Wunderground v.1.15,2013-09-18 08:05:00,
2013-09-18 04:10:00,46.1,43.0,30.27,WNW,287,0.0,0.0,89,0.00,,,0.00,Wunderground v.1.15,2013-09-18 08:10:00,
2013-09-18 04:20:00,45.9,42.8,30.27,WNW,287,0.0,0.0,89,0.00,,,0.00,Wunderground v.1.15,2013-09-18 08:20:00,
2013-09-18 04:25:00,45.9,42.8,30.27,WNW,287,0.0,0.0,89,0.00,,,0.00,Wunderground v.1.15,2013-09-18 08:25:00,
2013-09-18 04:35:00,45.8,42.7,30.26,WNW,287,0.0,0.0,89,0.00,,,0.00,Wunderground v.1.15,2013-09-18 08:35:00,
2013-09-18 04:45:00,45.7,42.6,30.27,WNW,287,0.0,0.0,89,0.00,,,0.00,Wunderground v.1.15,2013-09-18 08:45:00,
2013-09-18 04:50:00,45.6,42.5,30.27,WNW,287,0.0,0.0,89,0.00,,,0.00,Wunderground v.1.15,2013-09-18 08:50:00,
2013-09-18 05:00:00,45.5,42.7,30.27,WNW,287,0.0,0.0,90,0.00,,,0.00,Wunderground v.1.15,2013-09-18 09:00:00,
2013-09-18 05:05:00,45.5,42.7,30.27,WNW,287,0.0,0.0,90,0.00,,,0.00,Wunderground v.1.15,2013-09-18 09:05:00,
2013-09-18 05:15:00,45.4,42.6,30.27,WNW,287,0.0,0.0,90,0.00,,,0.00,Wunderground v.1.15,2013-09-18 09:15:00,
2013-09-18 05:20:00,45.4,42.6,30.27,WNW,287,0.0,0.0,90,0.00,,,0.00,Wunderground v.1.15,2013-09-18 09:20:00,
2013-09-18 05:30:00,45.2,42.4,30.27,WNW,287,0.0,0.0,90,0.00,,,0.00,Wunderground v.1.15,2013-09-18 09:30:00,
2013-09-18 05:35:00,45.1,42.3,30.27,WNW,287,0.0,0.0,90,0.00,,,0.00,Wunderground v.1.15,2013-09-18 09:35:00,
2013-09-18 05:40:00,45.0,42.2,30.27,WNW,287,0.0,0.0,90,0.00,,,0.00,Wunderground v.1.15,2013-09-18 09:40:00,
2013-09-18 05:50:00,44.9,42.1,30.27,WNW,287,0.0,0.0,90,0.00,,,0.00,Wunderground v.1.15,2013-09-18 09:50:00,
2013-09-18 06:00:00,44.9,42.1,30.27,WNW,287,0.0,0.0,90,0.00,,,0.00,Wunderground v.1.15,2013-09-18 10:00:00,
2013-09-18 06:10:00,44.7,41.9,30.28,WNW,287,0.0,0.0,90,0.00,,,0.00,Wunderground v.1.15,2013-09-18 10:10:00,
2013-09-18 06:20:00,44.6,41.8,30.28,WNW,287,0.0,0.0,90,0.00,,,0.00,Wunderground v.1.15,2013-09-18 10:20:00,
2013-09-18 06:30:00,44.4,41.7,30.28,WNW,287,0.0,0.0,90,0.00,,,0.00,Wunderground v.1.15,2013-09-18 10:30:00,
2013-09-18 06:35:00,44.4,41.7,30.28,WNW,287,0.0,0.0,90,0.00,,,0.00,Wunderground v.1.15,2013-09-18 10:35:00,
2013-09-18 06:45:00,44.5,42.0,30.28,WNW,287,0.0,0.0,91,0.00,,,0.00,Wunderground v.1.15,2013-09-18 10:45:00,
2013-09-18 06:55:00,45.3,42.8,30.28,WNW,287,0.0,0.0,91,0.00,,,0.00,Wunderground v.1.15,2013-09-18 10:55:00,
2013-09-18 07:00:00,45.8,43.3,30.29,WNW,287,0.0,0.0,91,0.00,,,0.00,Wunderground v.1.15,2013-09-18 11:00:00,
2013-09-18 07:05:00,46.6,44.1,30.29,WNW,287,0.0,0.0,91,0.00,,,0.00,Wunderground v.1.15,2013-09-18 11:05:00,
2013-09-18 07:15:00,47.4,44.3,30.29,WNW,287,0.0,0.0,89,0.00,,,0.00,Wunderground v.1.15,2013-09-18 11:15:00,
2013-09-18 07:25:00,48.2,44.5,30.29,WNW,287,0.0,0.0,87,0.00,,,0.00,Wunderground v.1.15,2013-09-18 11:25:00,
2013-09-18 07:35:00,49.2,44.9,30.29,WSW,256,0.0,0.0,85,0.00,,,0.00,Wunderground v.1.15,2013-09-18 11:35:00,
2013-09-18 07:45:00,49.9,44.9,30.28,WSW,256,0.0,0.0,83,0.00,,,0.00,Wunderground v.1.15,2013-09-18 11:45:00,
2013-09-18 07:55:00,51.4,45.8,30.28,WSW,256,0.0,0.0,81,0.00,,,0.00,Wunderground v.1.15,2013-09-18 11:55:00,
2013-09-18 08:05:00,52.4,46.4,30.28,WSW,256,0.0,0.0,80,0.00,,,0.00,Wunderground v.1.15,2013-09-18 12:05:00,
2013-09-18 08:10:00,52.9,46.6,30.28,WSW,256,0.0,1.0,79,0.00,,,0.00,Wunderground v.1.15,2013-09-18 12:10:00,
2013-09-18 08:20:00,53.9,47.2,30.28,WSW,256,0.0,0.0,78,0.00,,,0.00,Wunderground v.1.15,2013-09-18 12:20:00,
2013-09-18 08:25:00,53.9,46.5,30.28,WSW,252,0.0,0.0,76,0.00,,,0.00,Wunderground v.1.15,2013-09-18 12:25:00,
2013-09-18 08:35:00,55.1,47.7,30.28,WSW,252,0.0,0.0,76,0.00,,,0.00,Wunderground v.1.15,2013-09-18 12:35:00,
2013-09-18 08:45:00,56.3,47.8,30.27,WSW,251,0.0,0.0,73,0.00,,,0.00,Wunderground v.1.15,2013-09-18 12:45:00,
2013-09-18 08:50:00,57.0,48.1,30.27,WSW,250,0.0,0.0,72,0.00,,,0.00,Wunderground v.1.15,2013-09-18 12:50:00,
2013-09-18 09:00:00,58.5,48.4,30.27,WSW,253,1.0,1.0,69,0.00,,,0.00,Wunderground v.1.15,2013-09-18 13:00:00,
2013-09-18 09:05:00,58.9,48.4,30.27,WSW,253,0.0,1.0,68,0.00,,,0.00,Wunderground v.1.15,2013-09-18 13:05:00,
2013-09-18 09:15:00,60.0,49.0,30.27,SW,217,1.0,1.0,67,0.00,,,0.00,Wunderground v.1.15,2013-09-18 13:15:00,
2013-09-18 09:25:00,60.3,48.9,30.27,SSW,206,1.0,1.0,66,0.00,,,0.00,Wunderground v.1.15,2013-09-18 13:25:00,
2013-09-18 09:35:00,62.3,50.0,30.27,West,279,1.0,1.0,64,0.00,,,0.00,Wunderground v.1.15,2013-09-18 13:35:00,
2013-09-18 09:45:00,63.3,49.2,30.26,WNW,297,0.0,0.0,60,0.00,,,0.00,Wunderground v.1.15,2013-09-18 13:45:00,
2013-09-18 09:55:00,64.3,49.7,30.26,WNW,297,1.0,1.0,59,0.00,,,0.00,Wunderground v.1.15,2013-09-18 13:55:00,
2013-09-18 10:00:00,65.0,49.4,30.26,WNW,296,1.0,1.0,57,0.00,,,0.00,Wunderground v.1.15,2013-09-18 14:00:00,
2013-09-18 10:05:00,65.0,48.4,30.26,NW,317,1.0,2.0,55,0.00,,,0.00,Wunderground v.1.15,2013-09-18 14:05:00,
2013-09-18 10:15:00,65.7,48.6,30.25,NW,316,2.0,3.0,54,0.00,,,0.00,Wunderground v.1.15,2013-09-18 14:15:00,
2013-09-18 10:25:00,66.9,47.6,30.25,NNW,347,2.0,3.0,50,0.00,,,0.00,Wunderground v.1.15,2013-09-18 14:25:00,
2013-09-18 10:35:00,67.3,44.6,30.24,West,277,2.0,3.0,44,0.00,,,0.00,Wunderground v.1.15,2013-09-18 14:35:00,
2013-09-18 10:45:00,67.2,45.7,30.25,NNW,337,2.0,3.0,46,0.00,,,0.00,Wunderground v.1.15,2013-09-18 14:45:00,
2013-09-18 10:55:00,67.4,45.3,30.24,NW,309,2.0,3.0,45,0.00,,,0.00,Wunderground v.1.15,2013-09-18 14:55:00,
2013-09-18 11:05:00,67.7,46.2,30.24,NW,321,3.0,5.0,46,0.00,,,0.00,Wunderground v.1.15,2013-09-18 15:05:00,
2013-09-18 11:10:00,67.8,45.1,30.24,WNW,300,3.0,3.0,44,0.00,,,0.00,Wunderground v.1.15,2013-09-18 15:10:00,
2013-09-18 11:20:00,68.3,44.9,30.24,West,274,3.0,3.0,43,0.00,,,0.00,Wunderground v.1.15,2013-09-18 15:20:00,
2013-09-18 11:30:00,68.5,44.5,30.24,West,274,2.0,2.0,42,0.00,,,0.00,Wunderground v.1.15,2013-09-18 15:30:00,
2013-09-18 11:40:00,68.4,44.4,30.23,WNW,285,3.0,4.0,42,0.00,,,0.00,Wunderground v.1.15,2013-09-18 15:40:00,
2013-09-18 11:50:00,68.8,45.4,30.23,West,279,2.0,2.0,43,0.00,,,0.00,Wunderground v.1.15,2013-09-18 15:50:00,
2013-09-18 11:55:00,69.3,46.4,30.23,NW,308,2.0,2.0,44,0.00,,,0.00,Wunderground v.1.15,2013-09-18 15:55:00,
2013-09-18 12:15:00,69.1,45.7,30.22,WNW,291,2.0,4.0,43,0.00,,,0.00,Wunderground v.1.15,2013-09-18 16:15:00,
2013-09-18 12:25:00,70.1,46.6,30.21,NNW,332,2.0,3.0,43,0.00,,,0.00,Wunderground v.1.15,2013-09-18 16:25:00,
2013-09-18 12:35:00,70.0,45.2,30.21,WNW,285,2.0,3.0,41,0.00,,,0.00,Wunderground v.1.15,2013-09-18 16:35:00,
2013-09-18 12:45:00,69.4,45.9,30.20,NW,310,1.0,2.0,43,0.00,,,0.00,Wunderground v.1.15,2013-09-18 16:45:00,
2013-09-18 12:50:00,69.8,43.0,30.20,NW,307,1.0,2.0,38,0.00,,,0.00,Wunderground v.1.15,2013-09-18 16:50:00,
2013-09-18 13:00:00,70.6,45.1,30.20,WSW,255,1.0,1.0,40,0.00,,,0.00,Wunderground v.1.15,2013-09-18 17:00:00,
2013-09-18 13:05:00,70.9,45.4,30.20,NW,306,1.0,1.0,40,0.00,,,0.00,Wunderground v.1.15,2013-09-18 17:05:00,
2013-09-18 13:15:00,70.7,43.1,30.19,West,272,2.0,2.0,37,0.00,,,0.00,Wunderground v.1.15,2013-09-18 17:15:00,
2013-09-18 13:20:00,70.8,43.9,30.19,WSW,254,1.0,1.0,38,0.00,,,0.00,Wunderground v.1.15,2013-09-18 17:20:00,
2013-09-18 13:30:00,70.9,44.0,30.18,NW,304,1.0,1.0,38,0.00,,,0.00,Wunderground v.1.15,2013-09-18 17:30:00,
2013-09-18 13:35:00,70.8,43.2,30.18,NE,43,1.0,1.0,37,0.00,,,0.00,Wunderground v.1.15,2013-09-18 17:35:00,
2013-09-18 13:45:00,71.0,43.4,30.18,WNW,302,1.0,2.0,37,0.00,,,0.00,Wunderground v.1.15,2013-09-18 17:45:00,
2013-09-18 13:55:00,70.6,43.1,30.17,NW,317,1.0,2.0,37,0.00,,,0.00,Wunderground v.1.15,2013-09-18 17:55:00,
2013-09-18 14:05:00,70.7,41.7,30.17,SSW,209,2.0,2.0,35,0.00,,,0.00,Wunderground v.1.15,2013-09-18 18:05:00,
2013-09-18 14:15:00,71.3,41.5,30.16,WNW,282,2.0,4.0,34,0.00,,,0.00,Wunderground v.1.15,2013-09-18 18:15:00,
2013-09-18 14:20:00,71.1,42.0,30.16,West,277,2.0,2.0,35,0.00,,,0.00,Wunderground v.1.15,2013-09-18 18:20:00,
2013-09-18 14:30:00,71.5,43.1,30.16,WNW,293,2.0,3.0,36,0.00,,,0.00,Wunderground v.1.15,2013-09-18 18:30:00,
2013-09-18 14:40:00,71.6,43.9,30.15,SW,216,1.0,1.0,37,0.00,,,0.00,Wunderground v.1.15,2013-09-18 18:40:00,
2013-09-18 14:45:00,71.7,43.3,30.15,South,190,1.0,1.0,36,0.00,,,0.00,Wunderground v.1.15,2013-09-18 18:45:00,
2013-09-18 14:55:00,71.7,42.6,30.15,SSW,212,2.0,6.0,35,0.00,,,0.00,Wunderground v.1.15,2013-09-18 18:55:00,
2013-09-18 15:05:00,71.6,43.2,30.14,WNW,292,2.0,3.0,36,0.00,,,0.00,Wunderground v.1.15,2013-09-18 19:05:00,
2013-09-18 15:10:00,71.7,43.3,30.14,WSW,252,2.0,2.0,36,0.00,,,0.00,Wunderground v.1.15,2013-09-18 19:10:00,
2013-09-18 15:20:00,72.2,40.7,30.14,West,277,1.0,2.0,32,0.00,,,0.00,Wunderground v.1.15,2013-09-18 19:20:00,
2013-09-18 15:30:00,72.4,41.7,30.13,West,271,2.0,2.0,33,0.00,,,0.00,Wunderground v.1.15,2013-09-18 19:30:00,
2013-09-18 15:35:00,72.3,41.6,30.13,West,261,2.0,2.0,33,0.00,,,0.00,Wunderground v.1.15,2013-09-18 19:35:00,
2013-09-18 15:40:00,72.2,42.3,30.13,WNW,285,2.0,3.0,34,0.00,,,0.00,Wunderground v.1.15,2013-09-18 19:40:00,
2013-09-18 15:50:00,72.4,43.2,30.12,WNW,292,1.0,3.0,35,0.00,,,0.00,Wunderground v.1.15,2013-09-18 19:50:00,
2013-09-18 16:00:00,72.5,44.0,30.12,WNW,284,2.0,2.0,36,0.00,,,0.00,Wunderground v.1.15,2013-09-18 20:00:00,
2013-09-18 16:05:00,72.4,44.6,30.12,NW,317,2.0,2.0,37,0.00,,,0.00,Wunderground v.1.15,2013-09-18 20:05:00,
2013-09-18 16:15:00,72.5,44.7,30.12,NW,309,2.0,2.0,37,0.00,,,0.00,Wunderground v.1.15,2013-09-18 20:15:00,
2013-09-18 16:20:00,72.4,45.4,30.12,WNW,302,2.0,2.0,38,0.00,,,0.00,Wunderground v.1.15,2013-09-18 20:20:00,
2013-09-18 16:25:00,72.3,44.6,30.12,NW,317,1.0,2.0,37,0.00,,,0.00,Wunderground v.1.15,2013-09-18 20:25:00,
2013-09-18 16:35:00,72.6,45.5,30.11,NW,317,1.0,1.0,38,0.00,,,0.00,Wunderground v.1.15,2013-09-18 20:35:00,
2013-09-18 16:45:00,72.6,44.8,30.11,WNW,302,2.0,2.0,37,0.00,,,0.00,Wunderground v.1.15,2013-09-18 20:45:00,
2013-09-18 17:00:00,72.2,44.5,30.11,West,276,2.0,2.0,37,0.00,,,0.00,Wunderground v.1.15,2013-09-18 21:00:00,
2013-09-18 17:05:00,72.1,45.1,30.11,West,272,2.0,2.0,38,0.00,,,0.00,Wunderground v.1.15,2013-09-18 21:05:00,
2013-09-18 17:10:00,72.0,45.0,30.11,SSW,200,1.0,2.0,38,0.00,,,0.00,Wunderground v.1.15,2013-09-18 21:10:00,
2013-09-18 17:20:00,71.9,44.9,30.11,West,274,1.0,2.0,38,0.00,,,0.00,Wunderground v.1.15,2013-09-18 21:20:00,
2013-09-18 17:30:00,71.7,44.7,30.11,WNW,287,1.0,1.0,38,0.00,,,0.00,Wunderground v.1.15,2013-09-18 21:30:00,
2013-09-18 17:40:00,71.4,45.1,30.11,WNW,295,1.0,4.0,39,0.00,,,0.00,Wunderground v.1.15,2013-09-18 21:40:00,
2013-09-18 17:45:00,71.1,44.2,30.11,SW,219,1.0,4.0,38,0.00,,,0.00,Wunderground v.1.15,2013-09-18 21:45:00,
2013-09-18 17:50:00,71.0,44.8,30.11,WNW,288,1.0,2.0,39,0.00,,,0.00,Wunderground v.1.15,2013-09-18 21:50:00,
2013-09-18 18:00:00,70.4,44.9,30.11,SW,218,1.0,1.0,40,0.00,,,0.00,Wunderground v.1.15,2013-09-18 22:00:00,
2013-09-18 18:05:00,70.2,45.4,30.11,WNW,285,1.0,1.0,41,0.00,,,0.00,Wunderground v.1.15,2013-09-18 22:05:00,
2013-09-18 18:10:00,70.0,45.8,30.11,WNW,285,0.0,0.0,42,0.00,,,0.00,Wunderground v.1.15,2013-09-18 22:10:00,
2013-09-18 18:20:00,69.4,45.3,30.10,WNW,285,0.0,1.0,42,0.00,,,0.00,Wunderground v.1.15,2013-09-18 22:20:00,
2013-09-18 18:25:00,69.2,45.7,30.10,WNW,285,0.0,1.0,43,0.00,,,0.00,Wunderground v.1.15,2013-09-18 22:25:00,
2013-09-18 18:35:00,68.6,45.8,30.10,West,267,0.0,1.0,44,0.00,,,0.00,Wunderground v.1.15,2013-09-18 22:35:00,
2013-09-18 18:45:00,67.8,46.3,30.10,West,267,0.0,0.0,46,0.00,,,0.00,Wunderground v.1.15,2013-09-18 22:45:00,
2013-09-18 18:50:00,67.5,46.0,30.10,West,267,0.0,0.0,46,0.00,,,0.00,Wunderground v.1.15,2013-09-18 22:50:00,
2013-09-18 19:00:00,66.8,46.5,30.10,West,267,0.0,0.0,48,0.00,,,0.00,Wunderground v.1.15,2013-09-18 23:00:00,
2013-09-18 19:05:00,66.4,46.7,30.10,West,267,0.0,0.0,49,0.00,,,0.00,Wunderground v.1.15,2013-09-18 23:05:00,
2013-09-18 19:20:00,65.3,46.7,30.10,West,267,0.0,0.0,51,0.00,,,0.00,Wunderground v.1.15,2013-09-18 23:20:00,
2013-09-18 19:30:00,64.7,47.2,30.11,West,267,0.0,0.0,53,0.00,,,0.00,Wunderground v.1.15,2013-09-18 23:30:00,
2013-09-18 19:40:00,64.1,47.1,30.11,West,267,0.0,0.0,54,0.00,,,0.00,Wunderground v.1.15,2013-09-18 23:40:00,
2013-09-18 19:45:00,63.8,46.8,30.11,West,267,0.0,0.0,54,0.00,,,0.00,Wunderground v.1.15,2013-09-18 23:45:00,
2013-09-18 19:55:00,63.2,47.2,30.11,West,267,0.0,0.0,56,0.00,,,0.00,Wunderground v.1.15,2013-09-18 23:55:00,
2013-09-18 20:05:00,62.7,47.7,30.11,West,267,0.0,0.0,58,0.00,,,0.00,Wunderground v.1.15,2013-09-19 00:05:00,
2013-09-18 20:10:00,62.5,47.5,30.11,West,267,0.0,0.0,58,0.00,,,0.00,Wunderground v.1.15,2013-09-19 00:10:00,
2013-09-18 20:20:00,62.1,47.6,30.11,West,267,0.0,0.0,59,0.00,,,0.00,Wunderground v.1.15,2013-09-19 00:20:00,
2013-09-18 20:30:00,61.8,47.8,30.11,West,267,0.0,0.0,60,0.00,,,0.00,Wunderground v.1.15,2013-09-19 00:30:00,
2013-09-18 20:35:00,61.6,47.6,30.11,West,267,0.0,0.0,60,0.00,,,0.00,Wunderground v.1.15,2013-09-19 00:35:00,
2013-09-18 20:45:00,61.1,47.5,30.11,West,267,0.0,0.0,61,0.00,,,0.00,Wunderground v.1.15,2013-09-19 00:45:00,
2013-09-18 20:50:00,60.9,47.8,30.11,West,267,0.0,0.0,62,0.00,,,0.00,Wunderground v.1.15,2013-09-19 00:50:00,
2013-09-18 20:55:00,60.7,48.0,30.11,West,267,0.0,0.0,63,0.00,,,0.00,Wunderground v.1.15,2013-09-19 00:55:00,
2013-09-18 21:05:00,60.4,48.2,30.11,West,267,0.0,0.0,64,0.00,,,0.00,Wunderground v.1.15,2013-09-19 01:05:00,
2013-09-18 21:20:00,60.1,47.9,30.11,West,267,0.0,0.0,64,0.00,,,0.00,Wunderground v.1.15,2013-09-19 01:20:00,
2013-09-18 21:35:00,59.7,47.9,30.11,West,267,0.0,0.0,65,0.00,,,0.00,Wunderground v.1.15,2013-09-19 01:35:00,
2013-09-18 21:40:00,59.4,48.0,30.11,West,267,0.0,0.0,66,0.00,,,0.00,Wunderground v.1.15,2013-09-19 01:40:00,
2013-09-18 21:50:00,59.0,48.4,30.11,West,267,0.0,0.0,68,0.00,,,0.00,Wunderground v.1.15,2013-09-19 01:50:00,
2013-09-18 21:55:00,58.9,48.4,30.11,West,267,0.0,0.0,68,0.00,,,0.00,Wunderground v.1.15,2013-09-19 01:55:00,
2013-09-18 22:05:00,58.6,48.5,30.11,West,267,0.0,0.0,69,0.00,,,0.00,Wunderground v.1.15,2013-09-19 02:05:00,
2013-09-18 22:15:00,58.5,49.1,30.12,WSW,257,0.0,0.0,71,0.00,,,0.00,Wunderground v.1.15,2013-09-19 02:15:00,
2013-09-18 22:25:00,58.2,49.2,30.11,WSW,257,0.0,0.0,72,0.00,,,0.00,Wunderground v.1.15,2013-09-19 02:25:00,
2013-09-18 22:35:00,57.9,49.3,30.12,WSW,257,0.0,0.0,73,0.00,,,0.00,Wunderground v.1.15,2013-09-19 02:35:00,
2013-09-18 22:45:00,57.5,49.3,30.12,WSW,257,0.0,0.0,74,0.00,,,0.00,Wunderground v.1.15,2013-09-19 02:45:00,
2013-09-18 22:50:00,57.4,49.5,30.12,WSW,257,0.0,0.0,75,0.00,,,0.00,Wunderground v.1.15,2013-09-19 02:50:00,
2013-09-18 23:00:00,57.1,49.6,30.11,WSW,257,0.0,0.0,76,0.00,,,0.00,Wunderground v.1.15,2013-09-19 03:00:00,
2013-09-18 23:10:00,57.0,49.5,30.11,WSW,257,0.0,0.0,76,0.00,,,0.00,Wunderground v.1.15,2013-09-19 03:10:00,
2013-09-18 23:15:00,56.8,49.7,30.11,WSW,257,0.0,0.0,77,0.00,,,0.00,Wunderground v.1.15,2013-09-19 03:15:00,
2013-09-18 23:25:00,56.5,49.7,30.11,WSW,257,0.0,0.0,78,0.00,,,0.00,Wunderground v.1.15,2013-09-19 03:25:00,
2013-09-18 23:30:00,56.4,50.0,30.11,WSW,257,0.0,0.0,79,0.00,,,0.00,Wunderground v.1.15,2013-09-19 03:30:00,
2013-09-18 23:40:00,56.1,49.7,30.11,WSW,257,0.0,0.0,79,0.00,,,0.00,Wunderground v.1.15,2013-09-19 03:40:00,
2013-09-18 23:50:00,56.0,49.9,30.11,WSW,257,0.0,0.0,80,0.00,,,0.00,Wunderground v.1.15,2013-09-19 03:50:00,
2013-09-18 23:55:00,55.8,49.7,30.10,WSW,257,0.0,0.0,80,0.00,,,0.00,Wunderground v.1.15,2013-09-19 03:55:00,